createdAt,value
2018-10-19T00:00:42.525Z,31.60
2018-10-19T00:03:10.555Z,34.53
2018-10-19T00:05:38.488Z,35.03
2018-10-19T00:08:06.696Z,28.03
2018-10-19T00:10:34.628Z,31.47
2018-10-19T00:13:02.819Z,29.90
2018-10-19T00:15:30.740Z,28.10
2018-10-19T00:17:58.633Z,30.87
2018-10-19T00:20:26.478Z,29.53
2018-10-19T00:22:54.295Z,33.27
2018-10-19T00:25:22.162Z,34.90
2018-10-19T00:27:49.983Z,34.63
2018-10-19T00:30:17.708Z,31.40
2018-10-19T00:32:45.894Z,36.73
2018-10-19T00:35:14.102Z,31.57
2018-10-19T00:37:42.054Z,32.13
2018-10-19T00:40:09.933Z,26.40
2018-10-19T00:42:38.028Z,28.93
2018-10-19T00:45:06.416Z,36.37
2018-10-19T00:47:34.155Z,33.67
2018-10-19T00:50:01.870Z,24.30
2018-10-19T00:52:30.153Z,27.40
2018-10-19T00:54:58.136Z,27.30
2018-10-19T00:57:26.136Z,23.87
2018-10-19T00:59:53.959Z,28.20
2018-10-19T01:02:22.054Z,32.00
2018-10-19T01:04:49.919Z,29.80
2018-10-19T01:07:18.814Z,30.80
2018-10-19T01:09:46.582Z,26.47
2018-10-19T01:12:14.465Z,30.60
2018-10-19T01:14:42.495Z,34.40
2018-10-19T01:17:10.512Z,38.90
2018-10-19T01:19:38.252Z,33.17
2018-10-19T01:22:06.191Z,33.40
2018-10-19T01:24:33.905Z,32.80
2018-10-19T01:27:01.850Z,34.57
2018-10-19T01:29:29.591Z,28.67
2018-10-19T01:31:57.640Z,30.30
2018-10-19T01:34:25.681Z,30.40
2018-10-19T01:36:53.506Z,30.17
2018-10-19T01:39:21.356Z,28.07
2018-10-19T01:41:49.409Z,30.47
2018-10-19T01:44:17.693Z,29.20
2018-10-19T01:46:48.680Z,24.43
2018-10-19T01:49:17.364Z,31.40
2018-10-19T01:51:45.295Z,26.73
2018-10-19T01:54:13.039Z,26.80
2018-10-19T01:56:41.005Z,26.23
2018-10-19T01:59:08.927Z,32.77
2018-10-19T02:01:36.995Z,29.53
2018-10-19T02:04:05.679Z,32.03
2018-10-19T02:06:33.738Z,34.90
2018-10-19T02:09:01.869Z,34.87
2018-10-19T02:11:30.551Z,30.57
2018-10-19T02:13:58.344Z,35.80
2018-10-19T02:16:26.415Z,30.03
2018-10-19T02:18:54.264Z,26.73
2018-10-19T02:21:22.201Z,32.00
2018-10-19T02:23:50.050Z,34.07
2018-10-19T02:26:17.942Z,34.30
2018-10-19T02:28:45.704Z,31.40
2018-10-19T02:31:13.601Z,29.40
2018-10-19T02:33:41.501Z,37.77
2018-10-19T02:36:09.456Z,33.10
2018-10-19T02:38:37.338Z,32.13
2018-10-19T02:41:05.739Z,28.30
2018-10-19T02:43:33.573Z,33.33
2018-10-19T02:46:01.388Z,38.97
2018-10-19T02:48:29.235Z,36.93
2018-10-19T02:50:57.134Z,39.30
2018-10-19T02:53:25.005Z,36.77
2018-10-19T02:55:52.726Z,36.73
2018-10-19T02:58:20.590Z,31.53
2018-10-19T03:00:48.409Z,36.33
2018-10-19T03:03:16.278Z,36.50
2018-10-19T03:05:44.251Z,35.50
2018-10-19T03:08:11.986Z,39.17
2018-10-19T03:10:39.709Z,36.83
2018-10-19T03:13:07.578Z,38.67
2018-10-19T03:15:35.324Z,45.00
2018-10-19T03:18:03.105Z,38.87
2018-10-19T03:20:30.845Z,39.03
2018-10-19T03:22:58.558Z,42.57
2018-10-19T03:25:26.331Z,47.30
2018-10-19T03:27:54.170Z,47.13
2018-10-19T03:30:21.944Z,46.60
2018-10-19T03:32:49.920Z,46.27
2018-10-19T03:35:17.793Z,42.90
2018-10-19T03:37:45.435Z,46.30
2018-10-19T03:40:13.234Z,43.50
2018-10-19T03:42:41.021Z,43.13
2018-10-19T03:45:09.041Z,44.00
2018-10-19T03:47:36.915Z,43.23
2018-10-19T03:50:05.547Z,43.67
2018-10-19T03:52:33.455Z,53.00
2018-10-19T03:55:01.232Z,62.20
2018-10-19T03:57:29.108Z,49.83
2018-10-19T03:59:57.085Z,42.50
2018-10-19T04:02:25.460Z,49.93
2018-10-19T04:04:53.369Z,49.40
2018-10-19T04:07:21.240Z,53.03
2018-10-19T04:09:49.132Z,52.10
2018-10-19T04:12:17.092Z,52.03
2018-10-19T04:14:45.403Z,54.40
2018-10-19T04:17:14.405Z,84.57
2018-10-19T04:19:42.368Z,66.20
2018-10-19T04:22:10.318Z,62.53
2018-10-19T04:24:38.101Z,55.80
2018-10-19T04:27:06.339Z,53.27
2018-10-19T04:29:34.879Z,49.97
2018-10-19T04:32:02.965Z,56.20
2018-10-19T04:34:30.956Z,56.03
2018-10-19T04:37:02.506Z,55.77
2018-10-19T04:39:30.418Z,49.43
2018-10-19T04:41:58.492Z,54.30
2018-10-19T04:44:26.714Z,48.20
2018-10-19T04:46:54.719Z,50.23
2018-10-19T04:49:22.772Z,48.13
2018-10-19T04:51:50.820Z,58.23
2018-10-19T04:54:18.936Z,50.33
2018-10-19T04:56:47.307Z,48.90
2018-10-19T04:59:15.693Z,47.27
2018-10-19T05:01:43.783Z,49.57
2018-10-19T05:04:13.625Z,52.97
2018-10-19T05:06:41.756Z,46.43
2018-10-19T05:09:11.336Z,47.87
2018-10-19T05:11:39.760Z,49.20
2018-10-19T05:14:08.519Z,48.13
2018-10-19T05:16:37.220Z,49.37
2018-10-19T05:19:06.484Z,48.37
2018-10-19T05:21:35.234Z,47.43
2018-10-19T05:24:03.343Z,52.43
2018-10-19T05:26:31.371Z,41.13
2018-10-19T05:28:59.447Z,45.50
2018-10-19T05:31:27.781Z,43.87
2018-10-19T05:33:56.784Z,39.90
2018-10-19T05:36:25.462Z,37.10
2018-10-19T05:38:53.597Z,44.60
2018-10-19T05:41:21.771Z,40.70
2018-10-19T05:43:50.080Z,73.87
2018-10-19T05:46:17.982Z,73.50
2018-10-19T05:48:45.934Z,65.53
2018-10-19T05:51:13.819Z,65.90
2018-10-19T05:53:41.812Z,45.43
2018-10-19T05:56:09.803Z,45.80
2018-10-19T05:58:37.853Z,39.63
2018-10-19T06:01:05.804Z,43.43
2018-10-19T06:03:33.937Z,37.50
2018-10-19T06:06:02.260Z,40.10
2018-10-19T06:08:31.401Z,42.70
2018-10-19T06:10:59.767Z,44.60
2018-10-19T06:13:28.975Z,37.67
2018-10-19T06:15:57.095Z,44.50
2018-10-19T06:18:25.144Z,47.40
2018-10-19T06:20:53.099Z,50.67
2018-10-19T06:23:21.024Z,54.80
2018-10-19T06:25:49.325Z,49.97
2018-10-19T06:28:17.475Z,51.93
2018-10-19T06:30:46.163Z,50.33
2018-10-19T06:33:14.197Z,46.10
2018-10-19T06:35:42.233Z,45.73
2018-10-19T06:38:10.669Z,46.90
2018-10-19T06:40:38.664Z,47.70
2018-10-19T06:43:06.594Z,47.13
2018-10-19T06:45:34.345Z,43.60
2018-10-19T06:48:02.601Z,44.20
2018-10-19T06:50:30.812Z,48.90
2018-10-19T06:52:58.597Z,57.50
2018-10-19T06:55:26.713Z,52.43
2018-10-19T06:57:54.675Z,62.73
2018-10-19T07:00:22.613Z,55.77
2018-10-19T07:02:51.059Z,51.13
2018-10-19T07:05:18.857Z,53.30
2018-10-19T07:07:46.927Z,55.40
2018-10-19T07:10:14.919Z,58.17
2018-10-19T07:12:42.812Z,50.23
2018-10-19T07:15:11.332Z,55.47
2018-10-19T07:17:39.675Z,48.50
2018-10-19T07:20:09.057Z,59.70
2018-10-19T07:22:37.274Z,56.07
2018-10-19T07:25:05.668Z,50.73
2018-10-19T07:27:33.979Z,52.67
2018-10-19T07:30:01.949Z,58.30
2018-10-19T07:32:30.247Z,55.43
2018-10-19T07:34:58.470Z,53.07
2018-10-19T07:37:26.549Z,58.30
2018-10-19T07:39:54.380Z,54.43
2018-10-19T07:42:23.142Z,58.30
2018-10-19T07:44:51.004Z,55.87
2018-10-19T07:47:22.809Z,55.20
2018-10-19T07:49:52.797Z,60.40
2018-10-19T07:52:20.632Z,65.40
2018-10-19T07:54:48.916Z,61.50
2018-10-19T07:57:17.466Z,59.00
2018-10-19T07:59:45.631Z,60.10
2018-10-19T08:02:13.737Z,59.23
2018-10-19T08:04:43.727Z,59.77
2018-10-19T08:07:12.646Z,66.13
2018-10-19T08:09:40.849Z,67.90
2018-10-19T08:12:08.843Z,65.87
2018-10-19T08:14:37.120Z,64.83
2018-10-19T08:17:05.250Z,57.47
2018-10-19T08:19:33.268Z,60.80
2018-10-19T08:22:01.139Z,64.87
2018-10-19T08:24:29.398Z,82.57
2018-10-19T08:26:57.813Z,66.13
2018-10-19T08:29:25.899Z,64.20
2018-10-19T08:31:54.039Z,62.13
2018-10-19T08:34:21.872Z,61.73
2018-10-19T08:36:49.818Z,58.60
2018-10-19T08:39:17.651Z,58.23
2018-10-19T08:41:47.659Z,60.90
2018-10-19T08:44:16.259Z,61.77
2018-10-19T08:46:44.506Z,68.63
2018-10-19T08:49:12.624Z,68.73
2018-10-19T08:51:41.430Z,55.50
2018-10-19T08:54:09.605Z,61.80
2018-10-19T08:56:38.385Z,62.33
2018-10-19T08:59:06.340Z,61.07
2018-10-19T09:01:34.279Z,53.00
2018-10-19T09:04:02.439Z,60.73
2018-10-19T09:06:30.379Z,59.17
2018-10-19T09:09:00.000Z,60.13
2018-10-19T09:11:28.250Z,50.83
2018-10-19T09:13:56.408Z,55.73
2018-10-19T09:16:24.435Z,52.20
2018-10-19T09:18:52.493Z,50.80
2018-10-19T09:21:21.008Z,60.00
2018-10-19T09:23:48.934Z,54.37
2018-10-19T09:26:17.027Z,48.20
2018-10-19T09:28:44.960Z,45.37
2018-10-19T09:31:12.875Z,52.43
2018-10-19T09:33:40.659Z,46.00
2018-10-19T09:36:08.847Z,53.17
2018-10-19T09:38:37.251Z,42.77
2018-10-19T09:41:05.282Z,50.13
2018-10-19T09:43:33.210Z,39.33
2018-10-19T09:46:01.457Z,48.03
2018-10-19T09:48:29.510Z,42.53
2018-10-19T09:53:51.581Z,42.57
2018-10-19T09:56:19.980Z,41.90
2018-10-19T09:58:47.868Z,38.23
2018-10-19T10:01:21.565Z,36.10
2018-10-19T10:03:49.590Z,38.70
2018-10-19T10:06:17.878Z,40.40
2018-10-19T10:08:45.957Z,39.70
2018-10-19T10:11:13.895Z,34.33
2018-10-19T10:13:42.609Z,35.83
2018-10-19T10:16:10.709Z,39.27
2018-10-19T10:18:38.891Z,31.47
2018-10-19T10:21:07.130Z,35.97
2018-10-19T10:23:34.996Z,38.63
2018-10-19T10:26:03.064Z,34.60
2018-10-19T10:28:31.910Z,38.30
2018-10-19T10:30:59.849Z,30.97
2018-10-19T10:33:27.851Z,34.77
2018-10-19T10:35:55.754Z,37.53
2018-10-19T10:38:23.694Z,32.50
2018-10-19T10:40:51.794Z,38.40
2018-10-19T10:43:19.655Z,33.33
2018-10-19T10:45:47.595Z,33.10
2018-10-19T10:48:15.846Z,37.93
2018-10-19T10:50:43.955Z,31.53
2018-10-19T10:53:12.072Z,31.67
2018-10-19T10:55:40.095Z,34.60
2018-10-19T10:58:08.329Z,31.40
2018-10-19T11:00:36.337Z,30.87
2018-10-19T11:03:04.542Z,30.60
2018-10-19T11:05:32.646Z,30.83
2018-10-19T11:08:00.981Z,31.80
2018-10-19T11:10:29.071Z,33.43
2018-10-19T11:12:57.270Z,27.27
2018-10-19T11:15:25.277Z,27.90
2018-10-19T11:17:53.486Z,24.63
2018-10-19T11:20:21.580Z,25.80
2018-10-19T11:22:49.891Z,24.97
2018-10-19T11:25:17.776Z,23.60
2018-10-19T11:27:47.052Z,20.10
2018-10-19T11:30:15.026Z,25.77
2018-10-19T11:32:43.226Z,30.57
2018-10-19T11:35:11.168Z,23.87
2018-10-19T11:37:39.292Z,22.33
2018-10-19T11:40:21.302Z,24.17
2018-10-19T11:42:49.949Z,23.17
2018-10-19T11:45:18.187Z,30.23
2018-10-19T11:47:46.019Z,19.63
2018-10-19T11:50:14.159Z,27.47
2018-10-19T11:52:42.937Z,23.57
2018-10-19T11:55:11.155Z,20.20
2018-10-19T11:57:39.298Z,19.17
2018-10-19T12:00:08.085Z,22.00
2018-10-19T12:02:36.846Z,18.30
2018-10-19T12:05:05.950Z,16.27
2018-10-19T12:07:34.177Z,17.07
2018-10-19T12:10:02.400Z,16.97
2018-10-19T12:12:30.491Z,15.10
2018-10-19T12:14:59.109Z,19.07
2018-10-19T12:17:27.164Z,15.97
2018-10-19T12:19:55.113Z,17.83
2018-10-19T12:22:23.615Z,16.13
2018-10-19T12:24:51.677Z,20.23
2018-10-19T12:27:19.961Z,22.30
2018-10-19T12:29:49.013Z,28.23
2018-10-19T12:32:17.065Z,16.43
2018-10-19T12:34:44.843Z,21.77
2018-10-19T12:37:12.974Z,16.77
2018-10-19T12:39:41.162Z,15.20
2018-10-19T12:42:09.437Z,19.33
2018-10-19T12:44:38.406Z,12.77
2018-10-19T12:47:17.810Z,14.37
2018-10-19T12:49:46.025Z,15.30
2018-10-19T12:52:14.792Z,27.43
2018-10-19T12:54:42.817Z,16.97
2018-10-19T12:57:10.749Z,15.23
2018-10-19T12:59:38.725Z,17.00
2018-10-19T13:02:12.151Z,22.67
2018-10-19T13:04:40.627Z,19.87
2018-10-19T13:07:09.256Z,19.97
2018-10-19T13:09:37.243Z,22.40
2018-10-19T13:12:05.346Z,18.83
2018-10-19T13:14:33.337Z,21.30
2018-10-19T13:17:01.265Z,16.83
2018-10-19T13:19:29.511Z,15.60
2018-10-19T13:21:58.561Z,15.27
2018-10-19T13:24:27.569Z,19.67
2018-10-19T13:26:55.583Z,14.80
2018-10-19T13:29:23.613Z,15.57
2018-10-19T13:31:52.049Z,15.67
2018-10-19T13:34:20.012Z,17.67
2018-10-19T13:36:48.036Z,10.70
2018-10-19T13:39:16.314Z,14.97
2018-10-19T13:41:44.470Z,13.30
2018-10-19T13:44:12.670Z,13.30
2018-10-19T13:46:41.411Z,13.10
2018-10-19T13:49:09.584Z,15.03
2018-10-19T13:51:38.497Z,12.00
2018-10-19T13:54:07.002Z,17.67
2018-10-19T13:56:35.631Z,13.03
2018-10-19T13:59:03.511Z,18.07
2018-10-19T14:01:31.657Z,11.10
2018-10-19T14:03:59.673Z,11.70
2018-10-19T14:06:27.659Z,13.23
2018-10-19T14:08:55.910Z,15.83
2018-10-19T14:11:24.372Z,15.80
2018-10-19T14:13:53.023Z,16.53
2018-10-19T14:16:21.024Z,11.83
2018-10-19T14:18:49.221Z,10.93
2018-10-19T14:21:18.501Z,11.03
2018-10-19T14:23:46.314Z,10.30
2018-10-19T14:26:14.411Z,14.10
2018-10-19T14:28:42.504Z,23.07
2018-10-19T14:31:10.557Z,15.83
2018-10-19T14:33:38.817Z,11.00
2018-10-19T14:36:06.982Z,13.60
2018-10-19T14:38:34.873Z,22.63
2018-10-19T14:41:02.845Z,8.13
2018-10-19T14:43:31.381Z,15.33
2018-10-19T14:45:59.487Z,12.03
2018-10-19T14:48:27.457Z,11.40
2018-10-19T14:50:56.077Z,13.20
2018-10-19T14:53:24.181Z,19.20
2018-10-19T14:55:53.473Z,11.27
2018-10-19T14:58:22.026Z,10.47
2018-10-19T15:00:49.997Z,14.77
2018-10-19T15:03:19.295Z,13.70
2018-10-19T15:05:48.217Z,22.90
2018-10-19T15:08:16.562Z,12.17
2018-10-19T15:10:45.783Z,16.10
2018-10-19T15:13:14.442Z,31.03
2018-10-19T15:15:43.001Z,15.57
2018-10-19T15:18:11.025Z,10.67
2018-10-19T15:20:38.968Z,19.43
2018-10-19T15:23:07.658Z,15.93
2018-10-19T15:25:36.039Z,12.43
2018-10-19T15:28:04.498Z,12.30
2018-10-19T15:30:32.438Z,11.33
2018-10-19T15:33:01.503Z,14.07
2018-10-19T15:35:29.937Z,8.53
2018-10-19T15:37:58.181Z,9.90
2018-10-19T15:40:26.577Z,24.53
2018-10-19T15:42:55.002Z,15.47
2018-10-19T15:45:23.087Z,11.47
2018-10-19T15:47:51.115Z,11.20
2018-10-19T15:50:19.264Z,13.70
2018-10-19T15:52:48.081Z,15.60
2018-10-19T15:55:16.325Z,11.93
2018-10-19T15:57:44.660Z,18.00
2018-10-19T16:00:12.499Z,16.27
2018-10-19T16:02:41.025Z,11.40
2018-10-19T16:05:09.502Z,18.93
2018-10-19T16:07:38.200Z,20.47
2018-10-19T16:10:07.005Z,13.87
2018-10-19T16:12:35.886Z,12.17
2018-10-19T16:15:06.210Z,12.50
2018-10-19T16:17:34.949Z,17.73
2018-10-19T16:20:03.066Z,6.20
2018-10-19T16:22:31.380Z,7.73
2018-10-19T16:24:59.334Z,5.47
2018-10-19T16:27:28.760Z,7.73
2018-10-19T16:29:56.717Z,6.50
2018-10-19T16:32:26.621Z,13.70
2018-10-19T16:34:54.530Z,15.00
2018-10-19T16:37:22.785Z,9.70
2018-10-19T16:39:51.343Z,10.63
2018-10-19T16:42:20.441Z,7.20
2018-10-19T16:44:48.501Z,9.17
2018-10-19T16:47:18.120Z,6.00
2018-10-19T16:49:46.409Z,13.80
2018-10-19T16:52:14.245Z,17.40
2018-10-19T16:54:42.464Z,11.10
2018-10-19T16:57:10.591Z,11.60
2018-10-19T16:59:45.579Z,12.80
2018-10-19T17:02:14.225Z,7.73
2018-10-19T17:04:43.094Z,10.50
2018-10-19T17:07:12.148Z,9.00
2018-10-19T17:09:40.263Z,9.67
2018-10-19T17:12:08.445Z,10.07
2018-10-19T17:14:40.233Z,11.43
2018-10-19T17:17:08.488Z,11.27
2018-10-19T17:19:36.674Z,7.87
2018-10-19T17:22:05.366Z,15.13
2018-10-19T17:24:34.478Z,47.10
2018-10-19T17:27:02.946Z,38.50
2018-10-19T17:29:31.936Z,32.10
2018-10-19T17:32:01.168Z,21.03
2018-10-19T17:34:29.915Z,21.70
2018-10-19T17:37:00.124Z,21.80
2018-10-19T17:39:28.380Z,7.77
2018-10-19T17:41:56.575Z,39.77
2018-10-19T17:44:25.146Z,39.97
2018-10-19T17:46:53.298Z,40.23
2018-10-19T17:49:21.323Z,31.97
2018-10-19T17:51:50.007Z,28.90
2018-10-19T17:54:18.510Z,38.13
2018-10-19T17:56:47.183Z,35.27
2018-10-19T17:59:15.810Z,28.20
2018-10-19T18:01:43.843Z,28.47
2018-10-19T18:04:12.846Z,25.70
2018-10-19T18:06:40.876Z,28.80
2018-10-19T18:09:12.011Z,29.83
2018-10-19T18:11:40.373Z,18.37
2018-10-19T18:14:08.631Z,30.27
2018-10-19T18:16:36.784Z,27.87
2018-10-19T18:19:05.592Z,18.07
2018-10-19T18:21:34.210Z,18.27
2018-10-19T18:24:02.379Z,25.03
2018-10-19T18:26:30.687Z,11.50
2018-10-19T18:29:00.503Z,9.77
2018-10-19T18:31:30.721Z,19.70
2018-10-19T18:33:58.646Z,39.77
2018-10-19T18:36:26.880Z,38.27
2018-10-19T18:38:54.895Z,26.70
2018-10-19T18:44:13.872Z,28.17
2018-10-19T18:46:41.937Z,26.37
2018-10-19T18:49:10.627Z,30.63
2018-10-19T18:51:38.953Z,23.40
2018-10-19T18:54:07.536Z,25.70
2018-10-19T18:56:36.442Z,24.30
2018-10-19T18:59:04.559Z,27.83
2018-10-19T19:01:32.993Z,20.77
2018-10-19T19:04:02.704Z,19.70
2018-10-19T19:06:30.726Z,14.90
2018-10-19T19:09:00.169Z,13.60
2018-10-19T19:11:28.261Z,21.30
2018-10-19T19:13:56.806Z,19.63
2018-10-19T19:16:27.901Z,13.10
2018-10-19T19:18:57.976Z,10.23
2018-10-19T19:21:26.945Z,8.00
2018-10-19T19:24:00.839Z,8.57
2018-10-19T19:26:29.151Z,13.67
2018-10-19T19:28:58.049Z,22.03
2018-10-19T19:31:27.910Z,38.10
2018-10-19T19:34:02.006Z,46.43
2018-10-19T19:36:30.181Z,52.00
2018-10-19T19:38:58.189Z,51.00
2018-10-19T19:41:31.702Z,56.77
2018-10-19T19:44:00.945Z,54.30
2018-10-19T19:46:29.540Z,73.73
2018-10-19T19:49:03.185Z,66.27
2018-10-19T19:51:31.295Z,44.93
2018-10-19T19:54:00.422Z,24.63
2018-10-19T19:56:29.193Z,23.57
2018-10-19T19:59:00.035Z,29.53
2018-10-19T20:01:28.724Z,35.77
2018-10-19T20:03:56.896Z,44.10
2018-10-19T20:06:24.915Z,39.23
2018-10-19T20:08:53.344Z,35.63
2018-10-19T20:11:21.818Z,34.33
2018-10-19T20:13:51.763Z,28.73
2018-10-19T20:16:23.851Z,29.10
2018-10-19T20:18:52.343Z,29.73
2018-10-19T20:21:20.458Z,21.13
2018-10-19T20:23:48.598Z,20.40
2018-10-19T20:26:17.047Z,31.73
2018-10-19T20:28:45.350Z,38.93
2018-10-19T20:31:13.312Z,33.43
2018-10-19T20:33:41.945Z,30.17
2018-10-19T20:36:10.702Z,27.37
2018-10-19T20:38:39.215Z,25.53
2018-10-19T20:41:08.886Z,22.90
2018-10-19T20:43:37.116Z,12.80
2018-10-19T20:46:05.816Z,8.17
2018-10-19T20:48:34.090Z,8.97
2018-10-19T20:51:02.310Z,6.73
2018-10-19T20:53:31.875Z,11.27
2018-10-19T20:56:00.206Z,6.10
2018-10-19T20:58:28.296Z,6.43
2018-10-19T21:00:56.632Z,11.33
2018-10-19T21:03:24.609Z,5.90
2018-10-19T21:05:52.548Z,6.77
2018-10-19T21:08:20.408Z,4.63
2018-10-19T21:10:49.327Z,6.27
2018-10-19T21:13:18.389Z,8.30
2018-10-19T21:15:47.767Z,7.90
2018-10-19T21:18:15.926Z,4.73
2018-10-19T21:20:43.927Z,10.63
2018-10-19T21:23:11.890Z,7.10
2018-10-19T21:25:39.845Z,6.30
2018-10-19T21:28:08.315Z,11.70
2018-10-19T21:30:36.583Z,10.13
2018-10-19T21:33:04.888Z,9.20
2018-10-19T21:35:33.898Z,5.67
2018-10-19T21:38:02.475Z,7.90
2018-10-19T21:40:31.276Z,10.80
2018-10-19T21:42:59.397Z,7.63
2018-10-19T21:45:27.297Z,5.33
2018-10-19T21:47:55.256Z,11.27
2018-10-19T21:50:23.505Z,6.40
2018-10-19T21:52:53.238Z,6.27
2018-10-19T21:55:21.588Z,3.93
2018-10-19T21:57:49.398Z,6.77
2018-10-19T22:00:17.641Z,8.80
2018-10-19T22:02:45.793Z,5.80
2018-10-19T22:05:13.953Z,12.03
2018-10-19T22:07:41.832Z,9.30
2018-10-19T22:10:10.130Z,15.00
2018-10-19T22:12:38.498Z,7.43
2018-10-19T22:15:07.325Z,8.73
2018-10-19T22:17:35.237Z,8.47
2018-10-19T22:20:03.084Z,10.07
2018-10-19T22:22:31.057Z,14.63
2018-10-19T22:24:59.174Z,13.23
2018-10-19T22:27:27.375Z,12.50
2018-10-19T22:29:55.333Z,7.80
2018-10-19T22:32:23.909Z,8.13
2018-10-19T22:34:51.986Z,10.47
2018-10-19T22:37:19.922Z,9.50
2018-10-19T22:39:47.852Z,12.07
2018-10-19T22:42:16.017Z,9.60
2018-10-19T22:44:44.026Z,7.50
2018-10-19T22:47:12.445Z,13.13
2018-10-19T22:49:40.502Z,10.17
2018-10-19T22:52:08.419Z,6.10
2018-10-19T22:54:36.387Z,8.43
2018-10-19T22:57:04.556Z,9.40
2018-10-19T22:59:32.821Z,12.83
2018-10-19T23:02:01.116Z,4.80
2018-10-19T23:04:29.095Z,8.27
2018-10-19T23:06:57.123Z,12.27
2018-10-19T23:09:25.207Z,7.70
2018-10-19T23:11:53.336Z,9.03
2018-10-19T23:14:22.069Z,6.67
2018-10-19T23:16:49.866Z,7.50
2018-10-19T23:19:17.689Z,6.20
2018-10-19T23:21:45.942Z,5.17
2018-10-19T23:24:13.823Z,8.17
2018-10-19T23:26:42.007Z,6.20
2018-10-19T23:29:09.981Z,9.63
2018-10-19T23:31:38.006Z,4.90
2018-10-19T23:34:05.959Z,5.30
2018-10-19T23:36:34.364Z,8.03
2018-10-19T23:39:02.420Z,6.10
2018-10-19T23:41:30.275Z,6.47
2018-10-19T23:43:58.231Z,7.20
2018-10-19T23:46:26.164Z,6.77
2018-10-19T23:48:54.166Z,9.77
2018-10-19T23:51:22.172Z,4.87
2018-10-19T23:53:50.115Z,4.80
2018-10-19T23:56:18.023Z,7.00
2018-10-19T23:58:46.230Z,6.50
